createdAt,value
2023-05-17T00:00:59.737Z,54.10
2023-05-17T00:03:26.485Z,54.10
2023-05-17T00:05:53.302Z,54.10
2023-05-17T00:08:20.054Z,54.00
2023-05-17T00:10:46.747Z,53.90
2023-05-17T00:13:13.448Z,53.90
2023-05-17T00:15:40.247Z,54.10
2023-05-17T00:18:07.048Z,54.20
2023-05-17T00:20:34.705Z,54.20
2023-05-17T00:23:01.496Z,54.20
2023-05-17T00:25:28.513Z,54.30
2023-05-17T00:27:55.652Z,54.40
2023-05-17T00:30:22.368Z,54.50
2023-05-17T00:32:49.147Z,54.50
2023-05-17T00:35:15.983Z,54.50
2023-05-17T00:37:47.651Z,54.50
2023-05-17T00:40:16.239Z,54.40
2023-05-17T00:42:43.153Z,54.50
2023-05-17T00:45:10.809Z,54.50
2023-05-17T00:47:38.838Z,54.50
2023-05-17T00:50:06.667Z,54.60
2023-05-17T00:52:33.560Z,54.60
2023-05-17T00:55:00.466Z,54.90
2023-05-17T00:57:29.164Z,54.90
2023-05-17T00:59:56.112Z,55.10
2023-05-17T01:02:22.961Z,54.90
2023-05-17T01:28:27.491Z,55.00
2023-05-17T01:30:56.693Z,56.10
2023-05-17T01:33:23.871Z,56.00
2023-05-17T01:35:50.703Z,56.10
2023-05-17T01:38:17.400Z,56.30
2023-05-17T01:41:26.967Z,56.20
2023-05-17T01:44:15.278Z,56.20
2023-05-17T01:46:43.401Z,56.50
2023-05-17T01:49:19.790Z,56.40
2023-05-17T01:51:54.725Z,56.70
2023-05-17T01:54:23.883Z,56.90
2023-05-17T01:56:57.992Z,57.10
2023-05-17T01:59:25.643Z,57.30
2023-05-17T02:01:57.158Z,57.30
2023-05-17T02:04:24.068Z,57.20
2023-05-17T02:06:50.945Z,57.20
2023-05-17T02:09:17.647Z,57.10
2023-05-17T02:11:44.389Z,57.00
2023-05-17T02:14:11.154Z,57.10
2023-05-17T02:16:37.884Z,57.20
2023-05-17T02:19:04.606Z,57.30
2023-05-17T02:21:31.405Z,57.40
2023-05-17T02:23:58.118Z,57.40
2023-05-17T02:26:24.806Z,57.30
2023-05-17T02:28:51.568Z,57.20
2023-05-17T02:31:18.272Z,56.90
2023-05-17T02:33:45.012Z,56.80
2023-05-17T02:36:11.751Z,56.70
2023-05-17T02:38:39.440Z,56.40
2023-05-17T02:41:06.285Z,56.50
2023-05-17T02:43:33.103Z,56.40
2023-05-17T02:45:59.857Z,56.80
2023-05-17T02:48:26.583Z,56.70
2023-05-17T02:50:54.888Z,56.30
2023-05-17T02:53:21.677Z,56.20
2023-05-17T02:55:48.373Z,56.20
2023-05-17T02:58:15.222Z,56.30
2023-05-17T03:00:46.295Z,56.40
2023-05-17T03:03:13.072Z,56.40
2023-05-17T03:05:39.867Z,56.40
2023-05-17T03:08:06.609Z,56.40
2023-05-17T03:10:33.401Z,56.60
2023-05-17T03:13:00.992Z,56.70
2023-05-17T03:15:30.021Z,56.80
2023-05-17T03:17:57.007Z,57.60
2023-05-17T03:20:24.142Z,57.20
2023-05-17T03:22:50.832Z,57.30
2023-05-17T03:25:17.578Z,57.30
2023-05-17T03:27:44.312Z,57.40
2023-05-17T03:30:11.275Z,57.50
2023-05-17T03:32:39.990Z,57.70
2023-05-17T03:35:07.441Z,57.70
2023-05-17T03:49:51.043Z,57.70
2023-05-17T03:52:17.733Z,57.40
2023-05-17T03:54:46.330Z,57.30
2023-05-17T03:57:14.783Z,57.30
2023-05-17T03:59:41.542Z,57.20
2023-05-17T04:02:08.260Z,57.20
2023-05-17T04:04:35.012Z,57.20
2023-05-17T04:07:02.220Z,57.00
2023-05-17T04:09:31.212Z,56.90
2023-05-17T04:11:57.907Z,56.50
2023-05-17T04:14:24.844Z,56.30
2023-05-17T04:16:51.676Z,56.40
2023-05-17T04:19:18.573Z,56.40
2023-05-17T04:21:46.115Z,56.10
2023-05-17T04:24:12.945Z,56.10
2023-05-17T04:26:40.020Z,55.80
2023-05-17T04:29:06.839Z,55.80
2023-05-17T04:31:34.330Z,55.70
2023-05-17T04:34:01.191Z,55.70
2023-05-17T04:36:28.453Z,55.80
2023-05-17T04:38:55.116Z,55.90
2023-05-17T04:41:21.847Z,56.00
2023-05-17T04:43:48.609Z,55.90
2023-05-17T04:46:15.343Z,55.80
2023-05-17T04:48:42.378Z,55.90
2023-05-17T04:51:09.111Z,56.10
2023-05-17T04:53:36.880Z,56.10
2023-05-17T04:56:04.781Z,56.20
2023-05-17T04:58:31.951Z,56.30
2023-05-17T05:00:58.758Z,56.40
2023-05-17T05:03:26.532Z,56.50
2023-05-17T05:05:53.378Z,56.70
2023-05-17T05:08:20.143Z,56.80
2023-05-17T05:10:46.876Z,56.80
2023-05-17T05:13:13.870Z,57.00
2023-05-17T05:15:40.684Z,57.10
2023-05-17T05:18:07.457Z,57.30
2023-05-17T05:20:34.414Z,57.70
2023-05-17T05:23:03.725Z,57.40
2023-05-17T05:27:59.200Z,56.80
2023-05-17T05:30:25.953Z,55.80
2023-05-17T05:32:53.272Z,55.60
2023-05-17T05:50:07.264Z,55.00
2023-05-17T08:00:25.573Z,53.20
2023-05-17T08:02:53.686Z,43.10
2023-05-17T08:05:20.617Z,44.50
2023-05-17T08:07:47.356Z,43.70
2023-05-17T08:10:15.387Z,44.50
2023-05-17T08:12:42.128Z,44.60
2023-05-17T10:57:51.217Z,45.40
2023-05-17T11:00:30.565Z,42.80
2023-05-17T11:03:15.371Z,41.30
2023-05-17T11:05:46.434Z,41.90
2023-05-17T11:08:18.056Z,41.90
2023-05-17T11:11:25.196Z,40.80
2023-05-17T11:13:56.450Z,43.60
2023-05-17T11:16:28.222Z,41.40
2023-05-17T11:19:06.287Z,40.50
2023-05-17T11:21:33.387Z,40.50
2023-05-17T11:24:03.805Z,39.80
2023-05-17T11:26:44.816Z,38.70
2023-05-17T11:29:12.336Z,39.30
2023-05-17T11:31:44.640Z,38.50
2023-05-17T11:34:12.113Z,38.50
2023-05-17T11:36:53.036Z,39.00
2023-05-17T11:39:22.157Z,40.20
2023-05-17T11:41:50.874Z,39.50
2023-05-17T11:44:33.021Z,39.10
2023-05-17T11:47:08.782Z,39.30
2023-05-17T11:49:40.732Z,38.50
2023-05-17T11:52:08.632Z,38.90
2023-05-17T11:54:37.585Z,39.50
2023-05-17T11:57:05.662Z,39.20
2023-05-17T11:59:40.916Z,39.20
2023-05-17T12:02:07.848Z,39.60
2023-05-17T12:04:39.547Z,39.50
2023-05-17T12:07:10.669Z,39.10
2023-05-17T12:09:40.494Z,39.10
2023-05-17T12:12:09.801Z,38.20
2023-05-17T12:14:36.908Z,39.10
2023-05-17T12:17:09.332Z,38.90
2023-05-17T12:19:36.295Z,37.50
2023-05-17T12:22:15.114Z,37.30
2023-05-17T12:24:42.921Z,37.20
2023-05-17T12:27:10.826Z,37.10
2023-05-17T12:29:39.034Z,38.10
2023-05-17T12:32:07.940Z,37.60
2023-05-17T12:34:35.192Z,37.50
2023-05-17T12:37:02.386Z,37.20
2023-05-17T12:39:31.468Z,37.40
2023-05-17T12:41:58.758Z,37.80
2023-05-17T12:44:25.996Z,37.20
2023-05-17T12:46:56.170Z,36.70
2023-05-17T12:49:24.346Z,36.50
2023-05-17T12:51:51.100Z,36.60
2023-05-17T12:54:24.055Z,37.00
2023-05-17T12:56:51.503Z,36.90
2023-05-17T12:59:20.820Z,36.90
2023-05-17T13:01:56.619Z,36.90
2023-05-17T13:04:34.328Z,37.00
2023-05-17T13:07:05.078Z,36.10
2023-05-17T13:09:34.380Z,35.70
2023-05-17T13:12:03.112Z,35.40
2023-05-17T13:14:39.209Z,35.70
2023-05-17T13:17:30.792Z,35.90
2023-05-17T14:04:25.429Z,36.40
2023-05-17T14:06:54.879Z,37.60
2023-05-17T14:09:21.980Z,37.90
2023-05-17T14:11:48.842Z,38.20
2023-05-17T14:19:11.220Z,37.20
2023-05-17T14:21:38.075Z,36.50
2023-05-17T14:24:05.009Z,36.40
2023-05-17T14:26:31.708Z,35.40
2023-05-17T14:28:58.725Z,35.70
2023-05-17T14:36:22.432Z,35.60
2023-05-17T14:38:49.169Z,35.00
2023-05-17T14:41:16.102Z,34.10
2023-05-17T14:43:42.845Z,34.90
2023-05-17T14:46:09.643Z,34.20
2023-05-17T14:48:36.970Z,34.20
2023-05-17T14:51:03.972Z,35.50
2023-05-17T14:53:30.899Z,34.10
2023-05-17T14:55:59.293Z,33.60
2023-05-17T14:58:26.414Z,32.80
2023-05-17T15:01:05.593Z,32.80
2023-05-17T15:03:34.522Z,33.50
2023-05-17T15:06:04.211Z,33.40
2023-05-17T15:08:33.250Z,33.50
2023-05-17T15:11:00.045Z,33.80
2023-05-17T15:13:26.922Z,34.10
2023-05-17T15:15:55.457Z,34.40
2023-05-17T15:18:22.504Z,34.60
2023-05-17T15:20:49.365Z,36.10
2023-05-17T15:23:16.254Z,34.70
2023-05-17T15:25:43.144Z,34.60
2023-05-17T15:28:09.851Z,34.90
2023-05-17T15:30:36.743Z,35.70
2023-05-17T15:33:03.690Z,35.00
2023-05-17T15:35:31.838Z,35.20
2023-05-17T15:37:59.749Z,35.70
2023-05-17T15:40:26.622Z,35.80
2023-05-17T15:42:54.645Z,35.40
2023-05-17T15:45:24.103Z,35.80
2023-05-17T15:47:50.931Z,35.70
2023-05-17T15:50:17.733Z,36.20
2023-05-17T15:52:44.650Z,35.90
2023-05-17T15:55:12.368Z,36.00
2023-05-17T15:57:41.444Z,35.80
2023-05-17T16:00:10.294Z,36.20
2023-05-17T16:02:38.294Z,35.50
2023-05-17T16:05:05.528Z,35.70
2023-05-17T16:07:32.576Z,35.70
2023-05-17T16:10:01.582Z,35.80
2023-05-17T16:12:29.449Z,35.90
2023-05-17T16:14:57.622Z,36.20
2023-05-17T16:17:24.425Z,36.30
2023-05-17T16:19:51.713Z,36.50
2023-05-17T16:22:18.497Z,36.80
2023-05-17T16:24:45.311Z,36.80
2023-05-17T16:27:12.043Z,37.70
2023-05-17T16:29:40.494Z,37.20
2023-05-17T16:32:08.144Z,37.70
2023-05-17T16:34:35.192Z,40.60
2023-05-17T16:37:02.340Z,38.50
2023-05-17T16:39:32.001Z,38.80
2023-05-17T16:41:58.839Z,38.20
2023-05-17T16:44:26.703Z,38.20
2023-05-17T16:46:53.552Z,38.50
2023-05-17T16:49:21.206Z,38.30
2023-05-17T16:51:49.973Z,38.40
2023-05-17T16:54:17.892Z,38.50
2023-05-17T16:56:44.719Z,38.90
2023-05-17T16:59:11.561Z,38.00
2023-05-17T17:01:38.367Z,37.60
2023-05-17T17:04:05.198Z,37.20
2023-05-17T17:06:33.801Z,36.90
2023-05-17T17:09:01.477Z,36.70
2023-05-17T17:11:28.294Z,39.10
2023-05-17T17:13:55.174Z,37.90
2023-05-17T17:16:22.683Z,37.00
2023-05-17T17:18:49.926Z,37.90
2023-05-17T17:21:17.044Z,38.50
2023-05-17T17:23:44.485Z,38.30
2023-05-17T17:26:11.707Z,38.00
2023-05-17T17:28:38.740Z,38.20
2023-05-17T17:31:07.805Z,37.80
2023-05-17T17:33:35.640Z,38.00
2023-05-17T17:36:03.895Z,37.80
2023-05-17T17:38:31.667Z,37.90
2023-05-17T17:40:58.534Z,38.80
2023-05-17T17:43:25.353Z,38.60
2023-05-17T17:45:52.119Z,38.70
2023-05-17T17:48:20.448Z,39.20
2023-05-17T17:50:47.259Z,39.40
2023-05-17T17:53:14.799Z,39.40
2023-05-17T17:55:41.532Z,39.00
2023-05-17T17:58:08.248Z,39.10
2023-05-17T18:00:35.126Z,39.20
2023-05-17T18:03:02.047Z,39.40
2023-05-17T18:05:28.878Z,39.20
2023-05-17T18:07:55.763Z,39.20
2023-05-17T18:10:22.471Z,39.60
2023-05-17T18:12:51.489Z,40.10
2023-05-17T18:15:18.541Z,39.90
2023-05-17T18:17:47.052Z,40.30
2023-05-17T18:20:13.903Z,40.10
2023-05-17T18:22:40.715Z,40.00
2023-05-17T18:25:07.795Z,39.60
2023-05-17T18:27:35.393Z,39.40
2023-05-17T18:30:02.966Z,39.50
2023-05-17T18:32:29.973Z,39.70
2023-05-17T18:34:56.859Z,39.50
2023-05-17T18:37:23.683Z,39.50
2023-05-17T18:39:50.443Z,39.20
2023-05-17T18:42:17.521Z,39.20
2023-05-17T18:44:44.238Z,39.10
2023-05-17T18:47:12.026Z,39.00
2023-05-17T18:49:41.877Z,39.10
2023-05-17T18:52:09.637Z,39.10
2023-05-17T18:54:36.401Z,39.20
2023-05-17T18:57:03.328Z,39.30
2023-05-17T18:59:30.059Z,39.40
2023-05-17T19:01:56.937Z,39.50
2023-05-17T19:04:23.902Z,39.60
2023-05-17T19:06:50.737Z,39.70
2023-05-17T19:09:17.593Z,39.90
2023-05-17T19:11:44.330Z,40.00
2023-05-17T19:14:11.492Z,40.20
2023-05-17T19:16:38.294Z,40.10
2023-05-17T19:19:06.374Z,40.40
2023-05-17T19:21:34.822Z,40.50
2023-05-17T19:24:01.574Z,40.50
2023-05-17T19:26:28.349Z,40.60
2023-05-17T19:28:55.158Z,40.80
2023-05-17T19:31:21.958Z,40.90
2023-05-17T19:33:48.757Z,40.80
2023-05-17T19:36:15.579Z,41.00
2023-05-17T19:38:42.334Z,41.20
2023-05-17T19:41:09.480Z,41.20
2023-05-17T19:43:38.156Z,41.30
2023-05-17T19:46:10.504Z,41.40
2023-05-17T19:48:38.379Z,41.40
2023-05-17T19:51:05.343Z,41.50
2023-05-17T19:53:43.919Z,41.60
2023-05-17T19:56:18.134Z,41.60
2023-05-17T19:58:44.940Z,41.70
2023-05-17T20:01:12.763Z,42.00
2023-05-17T20:03:41.442Z,42.10
2023-05-17T20:06:11.174Z,42.30
2023-05-17T20:08:37.955Z,42.40
2023-05-17T20:11:05.574Z,42.60
2023-05-17T20:13:34.158Z,42.40
2023-05-17T20:16:01.361Z,42.80
2023-05-17T20:18:30.069Z,42.70
2023-05-17T20:20:56.867Z,42.80
2023-05-17T20:23:24.704Z,42.70
2023-05-17T20:25:52.477Z,42.70
2023-05-17T20:28:19.275Z,42.80
2023-05-17T20:30:46.295Z,42.80
2023-05-17T20:33:13.053Z,42.80
2023-05-17T20:35:39.932Z,42.80
2023-05-17T20:38:06.730Z,42.70
2023-05-17T20:40:33.643Z,42.60
2023-05-17T20:43:00.676Z,42.80
2023-05-17T20:45:29.706Z,42.50
2023-05-17T20:47:57.043Z,42.60
2023-05-17T20:50:24.065Z,42.80
2023-05-17T20:52:51.209Z,42.70
2023-05-17T20:55:17.930Z,42.60
2023-05-17T20:57:44.784Z,42.70
2023-05-17T21:00:12.181Z,42.70
2023-05-17T21:07:40.258Z,42.40
2023-05-17T21:10:08.344Z,42.30
2023-05-17T21:12:36.009Z,42.00
2023-05-17T21:15:15.124Z,41.60
2023-05-17T21:17:43.681Z,41.70
2023-05-17T21:20:11.201Z,41.60
2023-05-17T21:22:38.052Z,41.50
2023-05-17T21:25:05.571Z,41.40
2023-05-17T21:27:33.968Z,41.40
2023-05-17T21:30:01.537Z,41.30
2023-05-17T21:32:29.841Z,41.40
2023-05-17T21:34:58.301Z,41.30
2023-05-17T21:37:25.622Z,41.30
2023-05-17T21:39:53.168Z,41.30
2023-05-17T21:42:19.909Z,41.30
2023-05-17T21:44:46.693Z,41.00
2023-05-17T21:47:13.458Z,41.00
2023-05-17T21:49:40.294Z,40.80
2023-05-17T21:52:07.221Z,41.00
2023-05-17T21:54:35.103Z,41.10
2023-05-17T21:57:01.910Z,41.00
2023-05-17T21:59:28.753Z,41.10
2023-05-17T22:01:57.578Z,40.90
2023-05-17T22:04:25.334Z,41.00
2023-05-17T22:19:11.336Z,40.80
2023-05-17T22:21:39.586Z,41.40
2023-05-17T22:24:06.768Z,41.40
2023-05-17T22:26:33.520Z,41.50
2023-05-17T22:29:00.638Z,41.40
2023-05-17T22:31:27.684Z,41.30
2023-05-17T22:33:54.743Z,41.20
2023-05-17T22:36:25.078Z,41.30
2023-05-17T22:38:51.984Z,41.20
2023-05-17T22:41:19.044Z,41.60
2023-05-17T22:43:45.799Z,41.70
2023-05-17T22:46:12.617Z,41.60
2023-05-17T22:48:40.522Z,41.70
2023-05-17T22:51:07.399Z,41.80
2023-05-17T22:53:34.150Z,41.90
2023-05-17T22:56:01.200Z,41.90
2023-05-17T22:58:28.098Z,42.00
2023-05-17T23:00:55.788Z,41.80
2023-05-17T23:03:22.633Z,42.40
2023-05-17T23:06:03.960Z,41.90
2023-05-17T23:08:31.796Z,41.80
2023-05-17T23:10:58.939Z,42.30
2023-05-17T23:13:26.238Z,42.40
2023-05-17T23:15:53.629Z,42.30
2023-05-17T23:18:20.499Z,42.20
2023-05-17T23:20:48.850Z,42.30
2023-05-17T23:23:16.134Z,42.40
2023-05-17T23:25:48.548Z,42.50
2023-05-17T23:28:15.730Z,42.70
2023-05-17T23:30:44.441Z,42.90
2023-05-17T23:33:11.636Z,42.90
2023-05-17T23:35:38.410Z,42.90
2023-05-17T23:38:07.117Z,43.00
2023-05-17T23:40:34.410Z,43.40
2023-05-17T23:43:03.702Z,43.30
2023-05-17T23:45:31.578Z,43.50
2023-05-17T23:48:00.401Z,43.70
2023-05-17T23:50:27.704Z,43.70
2023-05-17T23:52:54.508Z,43.70
2023-05-17T23:57:49.526Z,43.70
